Aérodrome :
LOGIN :

S'inscrire | Disclaimer

   EN    FR    IT 

 










Légende :    VFR   VFR Marginal   IFR   IFR Intensif   IFR Très Intensif
Visi : 
Plafond : 
>= 8 km
>= 3000ft
5 à 8 km
1000 à 3000 ft
1500m à 5 km
500 à 1000 ft
800 à 1500m
200 à 500 ft
< 800m
< 200 ft
Symboles :   Orages  Brouillard  Fortes neiges  Fortes précipitations  Vent > 20 kt
SIGMETs :   Divers  Orages  Givrage  Turbulence  Onde Orograph.  Cendres Volcan.







- Altitude de l'aérodrome : 17 ft
- Code IATA : MPL
- Voir les cartes d'approche


LFMT - Montpellier Méditerranée

DERNIER METAR :
  • 101300Z AUTO 31016KT CAVOK 14/02 Q1027 TEMPO 28015G25KT

METARs EXPIRÉS :
  • 101230Z AUTO 31016KT CAVOK 14/02 Q1027 TEMPO 28015G25KT
  • 101200Z AUTO 30017KT CAVOK 14/03 Q1027 TEMPO 28015G25KT
  • 101130Z AUTO 30018KT CAVOK 14/03 Q1027 TEMPO 28015G25KT
  • 101100Z AUTO 30018KT CAVOK 14/03 Q1028 TEMPO 28015G25KT
  • 101030Z AUTO 31016KT CAVOK 14/03 Q1028 TEMPO 28015G25KT

TAF TAF LFMT
Valide du 10 à 09h jusqu'au 11 à 09h UTC


100800Z 1009/1109 32012KT CAVOK
TEMPO 1009/1021 28015G25KT
ATIS : +33 4 67 13 11 70
Pas de NOTAMs connus pour ce terrain.
2 SIGMETs publiés pour la FIR Marseille (LFMM) :
 
Turbulence forte
LFMM SIGMET 9 VALID 101000/101400 LFPW
LFMM MARSEILLE FIR/UIR SEV TURB FCST WI N4015 E00430 - N4200 E00430 - N4215 E00230 - N4345 E00245 - N4500 E00445 - N4130 E00800 - N3915 E00800 - N4015 E00430 SFC/FL060 STNR NC=
Turbulence forte
LFMM SIGMET 10 VALID 101000/101400 LFPW
LFMM MARSEILLE FIR/UIR SEV TURB FCST WI N4630 E00600 - N4630 E00700 - N4400 E00700 - N4345 E00730 - N4315 E00600 - N4630 E00600 SFC/FL150 STNR NC=



MET'MAP, la Météo Aéronautique d'un coup d'oeil ! - Copyright ORBIFLY Décembre 2007 - Disclaimer

ORBIFLY MET'MAP TEAM :

Programmation & Développement : Alexandra Zaïnal
Conception & Développement : Baudouin d'Aumeries
Co-Programmation & Développement : Marc-Olivier Méhu
Soutien technique & logistique : Manuel Goepfert

Contact : metmap@orbifly.com




SOURCES & CREDITS :

   NOAA